sensor_id;sensor_type;location;lat;lon;timestamp;temperature;humidity
6244;DHT22;3155;49.940;8.450;2022-08-01T00:00:40;21.00;99.90
6244;DHT22;3155;49.940;8.450;2022-08-01T00:03:06;21.00;99.90
6244;DHT22;3155;49.940;8.450;2022-08-01T00:05:33;21.00;99.90
6244;DHT22;3155;49.940;8.450;2022-08-01T00:08:00;20.90;99.90
6244;DHT22;3155;49.940;8.450;2022-08-01T00:10:30;20.90;99.90
6244;DHT22;3155;49.940;8.450;2022-08-01T00:12:56;21.00;99.90
6244;DHT22;3155;49.940;8.450;2022-08-01T00:15:23;21.10;99.90
6244;DHT22;3155;49.940;8.450;2022-08-01T00:17:50;21.20;99.90
6244;DHT22;3155;49.940;8.450;2022-08-01T00:20:17;21.30;99.90
6244;DHT22;3155;49.940;8.450;2022-08-01T00:22:43;21.20;99.90
6244;DHT22;3155;49.940;8.450;2022-08-01T00:25:13;21.20;99.90
6244;DHT22;3155;49.940;8.450;2022-08-01T00:27:40;21.20;99.90
6244;DHT22;3155;49.940;8.450;2022-08-01T00:30:07;21.10;99.90
6244;DHT22;3155;49.940;8.450;2022-08-01T00:32:41;21.20;99.90
6244;DHT22;3155;49.940;8.450;2022-08-01T00:35:10;21.10;99.90
6244;DHT22;3155;49.940;8.450;2022-08-01T00:37:37;21.10;99.90
6244;DHT22;3155;49.940;8.450;2022-08-01T00:40:05;21.00;99.90
6244;DHT22;3155;49.940;8.450;2022-08-01T00:42:32;21.00;99.90
6244;DHT22;3155;49.940;8.450;2022-08-01T00:44:59;20.90;99.90
6244;DHT22;3155;49.940;8.450;2022-08-01T00:47:25;20.90;99.90
6244;DHT22;3155;49.940;8.450;2022-08-01T00:49:55;20.80;99.90
6244;DHT22;3155;49.940;8.450;2022-08-01T00:52:22;20.70;99.90
6244;DHT22;3155;49.940;8.450;2022-08-01T00:54:50;20.60;99.90
6244;DHT22;3155;49.940;8.450;2022-08-01T00:57:17;20.50;99.90
6244;DHT22;3155;49.940;8.450;2022-08-01T01:00:05;20.30;99.90
6244;DHT22;3155;49.940;8.450;2022-08-01T01:02:32;20.20;99.90
6244;DHT22;3155;49.940;8.450;2022-08-01T01:05:00;20.10;99.90
6244;DHT22;3155;49.940;8.450;2022-08-01T01:10:47;20.00;99.90
6244;DHT22;3155;49.940;8.450;2022-08-01T01:16:15;19.70;99.90
6244;DHT22;3155;49.940;8.450;2022-08-01T01:19:01;19.50;99.90
6244;DHT22;3155;49.940;8.450;2022-08-01T01:21:39;19.30;99.90
6244;DHT22;3155;49.940;8.450;2022-08-01T01:30:07;19.00;99.90
6244;DHT22;3155;49.940;8.450;2022-08-01T01:32:38;18.90;99.90
6244;DHT22;3155;49.940;8.450;2022-08-01T01:35:15;18.90;99.90
6244;DHT22;3155;49.940;8.450;2022-08-01T01:37:44;18.80;99.90
6244;DHT22;3155;49.940;8.450;2022-08-01T01:40:14;18.80;99.90
6244;DHT22;3155;49.940;8.450;2022-08-01T01:42:42;18.70;99.90
6244;DHT22;3155;49.940;8.450;2022-08-01T01:45:10;18.60;99.90
6244;DHT22;3155;49.940;8.450;2022-08-01T01:47:38;18.50;99.90
6244;DHT22;3155;49.940;8.450;2022-08-01T01:50:07;18.50;99.90
6244;DHT22;3155;49.940;8.450;2022-08-01T01:52:38;18.40;99.90
6244;DHT22;3155;49.940;8.450;2022-08-01T01:55:10;18.30;99.90
6244;DHT22;3155;49.940;8.450;2022-08-01T01:57:41;18.20;99.90
6244;DHT22;3155;49.940;8.450;2022-08-01T02:00:10;18.20;99.90
6244;DHT22;3155;49.940;8.450;2022-08-01T02:02:38;18.10;99.90
6244;DHT22;3155;49.940;8.450;2022-08-01T02:05:08;18.10;99.90
6244;DHT22;3155;49.940;8.450;2022-08-01T02:07:37;18.10;99.90
6244;DHT22;3155;49.940;8.450;2022-08-01T02:10:05;18.10;99.90
6244;DHT22;3155;49.940;8.450;2022-08-01T02:12:35;18.10;99.90
6244;DHT22;3155;49.940;8.450;2022-08-01T02:15:03;18.10;99.90
6244;DHT22;3155;49.940;8.450;2022-08-01T02:17:31;18.20;99.90
6244;DHT22;3155;49.940;8.450;2022-08-01T02:19:58;18.20;99.90
6244;DHT22;3155;49.940;8.450;2022-08-01T02:22:31;18.10;99.90
6244;DHT22;3155;49.940;8.450;2022-08-01T02:27:50;18.10;99.90
6244;DHT22;3155;49.940;8.450;2022-08-01T02:30:19;18.10;99.90
6244;DHT22;3155;49.940;8.450;2022-08-01T02:32:52;18.10;99.90
6244;DHT22;3155;49.940;8.450;2022-08-01T02:35:24;18.10;99.90
6244;DHT22;3155;49.940;8.450;2022-08-01T02:37:53;18.10;99.90
6244;DHT22;3155;49.940;8.450;2022-08-01T02:40:21;18.10;99.90
6244;DHT22;3155;49.940;8.450;2022-08-01T02:42:51;18.10;99.90
6244;DHT22;3155;49.940;8.450;2022-08-01T02:45:22;18.00;99.90
6244;DHT22;3155;49.940;8.450;2022-08-01T02:47:50;18.00;99.90
6244;DHT22;3155;49.940;8.450;2022-08-01T02:50:18;18.00;99.90
6244;DHT22;3155;49.940;8.450;2022-08-01T02:52:50;18.00;99.90
6244;DHT22;3155;49.940;8.450;2022-08-01T02:55:18;18.00;99.90
6244;DHT22;3155;49.940;8.450;2022-08-01T02:57:47;18.00;99.90
6244;DHT22;3155;49.940;8.450;2022-08-01T03:00:18;18.00;99.90
6244;DHT22;3155;49.940;8.450;2022-08-01T03:02:49;17.90;99.90
6244;DHT22;3155;49.940;8.450;2022-08-01T03:05:18;17.90;99.90
6244;DHT22;3155;49.940;8.450;2022-08-01T03:07:45;17.80;99.90
6244;DHT22;3155;49.940;8.450;2022-08-01T03:10:16;17.70;99.90
6244;DHT22;3155;49.940;8.450;2022-08-01T03:12:44;17.70;99.90
6244;DHT22;3155;49.940;8.450;2022-08-01T03:15:14;17.60;99.90
6244;DHT22;3155;49.940;8.450;2022-08-01T03:17:44;17.50;99.90
6244;DHT22;3155;49.940;8.450;2022-08-01T03:20:14;17.40;99.90
6244;DHT22;3155;49.940;8.450;2022-08-01T03:22:45;17.30;99.90
6244;DHT22;3155;49.940;8.450;2022-08-01T03:25:15;17.20;99.90
6244;DHT22;3155;49.940;8.450;2022-08-01T03:27:43;17.10;99.90
6244;DHT22;3155;49.940;8.450;2022-08-01T03:30:14;17.00;99.90
6244;DHT22;3155;49.940;8.450;2022-08-01T03:32:42;16.80;99.90
6244;DHT22;3155;49.940;8.450;2022-08-01T03:35:09;16.80;99.90
6244;DHT22;3155;49.940;8.450;2022-08-01T03:37:44;16.80;99.90
6244;DHT22;3155;49.940;8.450;2022-08-01T03:40:41;16.70;99.90
6244;DHT22;3155;49.940;8.450;2022-08-01T03:43:30;16.60;99.90
6244;DHT22;3155;49.940;8.450;2022-08-01T03:46:03;16.60;99.90
6244;DHT22;3155;49.940;8.450;2022-08-01T03:48:43;16.60;99.90
6244;DHT22;3155;49.940;8.450;2022-08-01T03:51:14;16.60;99.90
6244;DHT22;3155;49.940;8.450;2022-08-01T03:53:42;16.60;99.90
6244;DHT22;3155;49.940;8.450;2022-08-01T03:56:12;16.50;99.90
6244;DHT22;3155;49.940;8.450;2022-08-01T03:58:45;16.50;99.90
6244;DHT22;3155;49.940;8.450;2022-08-01T04:01:17;16.50;99.90
6244;DHT22;3155;49.940;8.450;2022-08-01T04:03:44;16.60;99.90
6244;DHT22;3155;49.940;8.450;2022-08-01T04:06:11;16.60;99.90
6244;DHT22;3155;49.940;8.450;2022-08-01T04:08:40;16.60;99.90
6244;DHT22;3155;49.940;8.450;2022-08-01T04:11:08;16.80;99.90
6244;DHT22;3155;49.940;8.450;2022-08-01T04:13:35;16.90;99.90
6244;DHT22;3155;49.940;8.450;2022-08-01T04:16:04;17.00;99.90
6244;DHT22;3155;49.940;8.450;2022-08-01T04:18:31;17.10;99.90
6244;DHT22;3155;49.940;8.450;2022-08-01T04:20:58;17.20;99.90
6244;DHT22;3155;49.940;8.450;2022-08-01T04:23:25;17.30;99.90
6244;DHT22;3155;49.940;8.450;2022-08-01T04:25:54;17.30;99.90
6244;DHT22;3155;49.940;8.450;2022-08-01T04:28:24;17.30;99.90
6244;DHT22;3155;49.940;8.450;2022-08-01T04:30:54;17.30;99.90
6244;DHT22;3155;49.940;8.450;2022-08-01T04:33:28;17.30;99.90
6244;DHT22;3155;49.940;8.450;2022-08-01T04:35:58;17.20;99.90
6244;DHT22;3155;49.940;8.450;2022-08-01T04:38:33;17.30;99.90
6244;DHT22;3155;49.940;8.450;2022-08-01T04:41:00;17.30;99.90
6244;DHT22;3155;49.940;8.450;2022-08-01T04:43:36;17.30;99.90
6244;DHT22;3155;49.940;8.450;2022-08-01T04:46:05;17.20;99.90
6244;DHT22;3155;49.940;8.450;2022-08-01T04:48:33;17.20;99.90
6244;DHT22;3155;49.940;8.450;2022-08-01T04:51:01;17.20;99.90
6244;DHT22;3155;49.940;8.450;2022-08-01T04:53:27;17.10;99.90
6244;DHT22;3155;49.940;8.450;2022-08-01T04:55:54;17.10;99.90
6244;DHT22;3155;49.940;8.450;2022-08-01T04:58:25;17.20;99.90
6244;DHT22;3155;49.940;8.450;2022-08-01T05:00:51;17.10;99.90
6244;DHT22;3155;49.940;8.450;2022-08-01T05:03:21;17.10;99.90
6244;DHT22;3155;49.940;8.450;2022-08-01T05:05:48;17.20;99.90
6244;DHT22;3155;49.940;8.450;2022-08-01T05:08:14;17.40;99.90
6244;DHT22;3155;49.940;8.450;2022-08-01T05:10:42;17.70;99.90
6244;DHT22;3155;49.940;8.450;2022-08-01T05:13:09;18.00;99.90
6244;DHT22;3155;49.940;8.450;2022-08-01T05:15:37;18.10;99.90
6244;DHT22;3155;49.940;8.450;2022-08-01T05:18:04;18.10;99.90
6244;DHT22;3155;49.940;8.450;2022-08-01T05:20:34;18.00;99.90
6244;DHT22;3155;49.940;8.450;2022-08-01T05:23:01;18.10;99.90
6244;DHT22;3155;49.940;8.450;2022-08-01T05:25:31;18.10;99.90
6244;DHT22;3155;49.940;8.450;2022-08-01T05:28:20;18.20;99.90
6244;DHT22;3155;49.940;8.450;2022-08-01T05:30:47;18.40;99.90
6244;DHT22;3155;49.940;8.450;2022-08-01T05:33:14;18.70;99.90
6244;DHT22;3155;49.940;8.450;2022-08-01T05:35:41;19.00;99.90
6244;DHT22;3155;49.940;8.450;2022-08-01T05:38:15;19.20;99.90
6244;DHT22;3155;49.940;8.450;2022-08-01T05:40:44;19.40;99.90
6244;DHT22;3155;49.940;8.450;2022-08-01T05:43:11;19.60;99.90
6244;DHT22;3155;49.940;8.450;2022-08-01T05:45:37;19.80;99.90
6244;DHT22;3155;49.940;8.450;2022-08-01T05:48:05;20.00;99.90
6244;DHT22;3155;49.940;8.450;2022-08-01T05:50:33;20.20;99.90
6244;DHT22;3155;49.940;8.450;2022-08-01T05:53:00;20.60;99.90
6244;DHT22;3155;49.940;8.450;2022-08-01T05:55:27;20.90;99.90
6244;DHT22;3155;49.940;8.450;2022-08-01T05:57:53;21.30;99.90
6244;DHT22;3155;49.940;8.450;2022-08-01T06:00:20;21.70;99.90
6244;DHT22;3155;49.940;8.450;2022-08-01T06:02:47;22.00;99.90
6244;DHT22;3155;49.940;8.450;2022-08-01T06:05:15;22.20;99.90
6244;DHT22;3155;49.940;8.450;2022-08-01T06:07:41;22.10;99.90
6244;DHT22;3155;49.940;8.450;2022-08-01T06:10:08;21.90;99.90
6244;DHT22;3155;49.940;8.450;2022-08-01T06:12:41;21.80;99.90
6244;DHT22;3155;49.940;8.450;2022-08-01T06:15:09;21.90;99.90
6244;DHT22;3155;49.940;8.450;2022-08-01T06:17:36;22.00;99.90
6244;DHT22;3155;49.940;8.450;2022-08-01T06:20:04;22.20;99.90
6244;DHT22;3155;49.940;8.450;2022-08-01T06:22:35;22.20;99.90
6244;DHT22;3155;49.940;8.450;2022-08-01T06:25:02;22.30;99.90
6244;DHT22;3155;49.940;8.450;2022-08-01T06:27:29;22.30;99.90
6244;DHT22;3155;49.940;8.450;2022-08-01T06:29:55;22.50;99.90
6244;DHT22;3155;49.940;8.450;2022-08-01T06:32:23;22.60;99.90
6244;DHT22;3155;49.940;8.450;2022-08-01T06:34:54;22.70;99.90
6244;DHT22;3155;49.940;8.450;2022-08-01T06:37:22;22.80;99.90
6244;DHT22;3155;49.940;8.450;2022-08-01T06:39:56;22.90;99.90
6244;DHT22;3155;49.940;8.450;2022-08-01T06:42:23;22.90;99.90
6244;DHT22;3155;49.940;8.450;2022-08-01T06:44:50;22.80;99.90
6244;DHT22;3155;49.940;8.450;2022-08-01T06:47:17;22.80;99.90
6244;DHT22;3155;49.940;8.450;2022-08-01T06:49:44;22.70;99.90
6244;DHT22;3155;49.940;8.450;2022-08-01T06:52:14;23.20;99.90
6244;DHT22;3155;49.940;8.450;2022-08-01T06:54:40;24.00;99.90
6244;DHT22;3155;49.940;8.450;2022-08-01T06:57:07;25.30;99.90
6244;DHT22;3155;49.940;8.450;2022-08-01T06:59:34;26.30;99.90
6244;DHT22;3155;49.940;8.450;2022-08-01T07:02:01;26.90;99.90
6244;DHT22;3155;49.940;8.450;2022-08-01T07:04:28;27.50;99.90
6244;DHT22;3155;49.940;8.450;2022-08-01T07:06:55;27.70;99.90
6244;DHT22;3155;49.940;8.450;2022-08-01T07:09:22;28.70;99.90
6244;DHT22;3155;49.940;8.450;2022-08-01T07:11:48;28.70;99.90
6244;DHT22;3155;49.940;8.450;2022-08-01T07:14:16;27.70;99.90
6244;DHT22;3155;49.940;8.450;2022-08-01T07:16:43;27.50;99.90
6244;DHT22;3155;49.940;8.450;2022-08-01T07:19:10;26.90;99.90
6244;DHT22;3155;49.940;8.450;2022-08-01T07:21:39;26.90;99.90
6244;DHT22;3155;49.940;8.450;2022-08-01T07:24:08;26.80;99.90
6244;DHT22;3155;49.940;8.450;2022-08-01T07:26:45;27.00;99.90
6244;DHT22;3155;49.940;8.450;2022-08-01T07:29:26;27.90;99.90
6244;DHT22;3155;49.940;8.450;2022-08-01T07:31:55;27.90;99.90
6244;DHT22;3155;49.940;8.450;2022-08-01T07:34:24;27.00;99.90
6244;DHT22;3155;49.940;8.450;2022-08-01T07:36:52;26.50;99.90
6244;DHT22;3155;49.940;8.450;2022-08-01T07:39:22;26.50;99.90
6244;DHT22;3155;49.940;8.450;2022-08-01T07:41:49;26.20;99.90
6244;DHT22;3155;49.940;8.450;2022-08-01T07:44:34;25.30;99.90
6244;DHT22;3155;49.940;8.450;2022-08-01T07:47:01;25.10;99.90
6244;DHT22;3155;49.940;8.450;2022-08-01T07:49:27;25.10;99.90
6244;DHT22;3155;49.940;8.450;2022-08-01T07:51:54;25.10;99.90
6244;DHT22;3155;49.940;8.450;2022-08-01T07:54:32;25.30;99.90
6244;DHT22;3155;49.940;8.450;2022-08-01T07:57:01;26.00;99.90
6244;DHT22;3155;49.940;8.450;2022-08-01T07:59:28;26.80;99.90
6244;DHT22;3155;49.940;8.450;2022-08-01T08:01:54;28.40;99.90
6244;DHT22;3155;49.940;8.450;2022-08-01T08:04:21;29.90;99.90
6244;DHT22;3155;49.940;8.450;2022-08-01T08:06:48;30.40;99.90
6244;DHT22;3155;49.940;8.450;2022-08-01T08:09:15;30.70;99.90
6244;DHT22;3155;49.940;8.450;2022-08-01T08:11:46;31.40;99.90
6244;DHT22;3155;49.940;8.450;2022-08-01T08:14:15;32.60;99.90
6244;DHT22;3155;49.940;8.450;2022-08-01T08:16:43;33.00;99.90
6244;DHT22;3155;49.940;8.450;2022-08-01T08:19:10;33.00;99.90
6244;DHT22;3155;49.940;8.450;2022-08-01T08:21:38;31.90;99.90
6244;DHT22;3155;49.940;8.450;2022-08-01T08:24:06;31.10;99.90
6244;DHT22;3155;49.940;8.450;2022-08-01T08:26:57;30.20;99.90
6244;DHT22;3155;49.940;8.450;2022-08-01T08:29:25;29.30;99.90
6244;DHT22;3155;49.940;8.450;2022-08-01T08:31:53;28.90;99.90
6244;DHT22;3155;49.940;8.450;2022-08-01T08:34:23;28.00;99.90
6244;DHT22;3155;49.940;8.450;2022-08-01T08:36:50;28.20;99.90
6244;DHT22;3155;49.940;8.450;2022-08-01T08:39:18;28.10;99.90
6244;DHT22;3155;49.940;8.450;2022-08-01T08:41:45;27.90;99.90
6244;DHT22;3155;49.940;8.450;2022-08-01T08:44:16;27.80;99.90
6244;DHT22;3155;49.940;8.450;2022-08-01T08:46:51;27.80;99.90
6244;DHT22;3155;49.940;8.450;2022-08-01T08:49:28;28.10;99.90
6244;DHT22;3155;49.940;8.450;2022-08-01T08:52:03;28.40;99.90
6244;DHT22;3155;49.940;8.450;2022-08-01T08:54:31;28.80;99.90
6244;DHT22;3155;49.940;8.450;2022-08-01T08:57:00;28.70;99.90
6244;DHT22;3155;49.940;8.450;2022-08-01T08:59:28;28.60;99.90
6244;DHT22;3155;49.940;8.450;2022-08-01T09:01:56;28.70;99.90
6244;DHT22;3155;49.940;8.450;2022-08-01T09:04:30;28.80;99.90
6244;DHT22;3155;49.940;8.450;2022-08-01T09:06:57;29.00;99.90
6244;DHT22;3155;49.940;8.450;2022-08-01T09:09:23;29.10;99.90
6244;DHT22;3155;49.940;8.450;2022-08-01T09:11:50;28.80;99.90
6244;DHT22;3155;49.940;8.450;2022-08-01T09:14:23;28.80;99.90
6244;DHT22;3155;49.940;8.450;2022-08-01T09:17:21;29.50;99.90
6244;DHT22;3155;49.940;8.450;2022-08-01T09:19:53;30.20;99.90
6244;DHT22;3155;49.940;8.450;2022-08-01T09:22:24;30.50;99.90
6244;DHT22;3155;49.940;8.450;2022-08-01T09:27:31;30.20;99.90
6244;DHT22;3155;49.940;8.450;2022-08-01T09:30:13;29.90;99.90
6244;DHT22;3155;49.940;8.450;2022-08-01T09:35:29;29.90;99.90
6244;DHT22;3155;49.940;8.450;2022-08-01T09:38:15;30.00;99.90
6244;DHT22;3155;49.940;8.450;2022-08-01T09:40:52;30.10;99.90
6244;DHT22;3155;49.940;8.450;2022-08-01T09:43:24;30.20;99.90
6244;DHT22;3155;49.940;8.450;2022-08-01T09:45:53;29.80;99.90
6244;DHT22;3155;49.940;8.450;2022-08-01T09:48:21;29.50;99.90
6244;DHT22;3155;49.940;8.450;2022-08-01T09:50:57;29.30;99.90
6244;DHT22;3155;49.940;8.450;2022-08-01T09:53:44;29.30;99.90
6244;DHT22;3155;49.940;8.450;2022-08-01T09:56:19;28.50;99.90
6244;DHT22;3155;49.940;8.450;2022-08-01T09:58:58;28.20;99.90
6244;DHT22;3155;49.940;8.450;2022-08-01T10:01:46;27.80;99.90
6244;DHT22;3155;49.940;8.450;2022-08-01T10:04:21;27.50;99.90
6244;DHT22;3155;49.940;8.450;2022-08-01T10:06:50;27.20;99.90
6244;DHT22;3155;49.940;8.450;2022-08-01T10:09:32;27.10;99.90
6244;DHT22;3155;49.940;8.450;2022-08-01T10:12:11;26.90;99.90
6244;DHT22;3155;49.940;8.450;2022-08-01T10:14:44;26.90;99.90
6244;DHT22;3155;49.940;8.450;2022-08-01T10:17:20;27.30;99.90
6244;DHT22;3155;49.940;8.450;2022-08-01T10:19:48;28.50;99.90
6244;DHT22;3155;49.940;8.450;2022-08-01T10:22:18;29.70;99.90
6244;DHT22;3155;49.940;8.450;2022-08-01T10:24:47;30.70;99.90
6244;DHT22;3155;49.940;8.450;2022-08-01T10:27:16;31.50;99.90
6244;DHT22;3155;49.940;8.450;2022-08-01T10:30:04;32.50;99.90
6244;DHT22;3155;49.940;8.450;2022-08-01T10:32:47;33.00;99.40
6244;DHT22;3155;49.940;8.450;2022-08-01T10:35:17;32.60;98.90
6244;DHT22;3155;49.940;8.450;2022-08-01T10:38:04;32.40;99.20
6244;DHT22;3155;49.940;8.450;2022-08-01T10:40:37;31.80;99.30
6244;DHT22;3155;49.940;8.450;2022-08-01T10:43:05;31.90;99.20
6244;DHT22;3155;49.940;8.450;2022-08-01T10:45:33;31.50;99.20
6244;DHT22;3155;49.940;8.450;2022-08-01T10:48:09;31.20;99.90
6244;DHT22;3155;49.940;8.450;2022-08-01T10:50:42;31.00;99.70
6244;DHT22;3155;49.940;8.450;2022-08-01T10:53:17;30.50;99.90
6244;DHT22;3155;49.940;8.450;2022-08-01T10:55:58;30.90;99.90
6244;DHT22;3155;49.940;8.450;2022-08-01T10:58:39;30.50;98.80
6244;DHT22;3155;49.940;8.450;2022-08-01T11:06:43;31.10;99.60
6244;DHT22;3155;49.940;8.450;2022-08-01T11:09:24;32.10;98.80
6244;DHT22;3155;49.940;8.450;2022-08-01T11:12:14;32.10;98.20
6244;DHT22;3155;49.940;8.450;2022-08-01T11:17:45;30.30;99.00
6244;DHT22;3155;49.940;8.450;2022-08-01T11:20:28;30.10;99.60
6244;DHT22;3155;49.940;8.450;2022-08-01T11:28:33;32.30;97.40
6244;DHT22;3155;49.940;8.450;2022-08-01T11:39:10;32.40;96.40
6244;DHT22;3155;49.940;8.450;2022-08-01T11:41:41;32.10;96.70
6244;DHT22;3155;49.940;8.450;2022-08-01T11:44:14;31.20;96.70
6244;DHT22;3155;49.940;8.450;2022-08-01T11:49:33;32.20;97.60
6244;DHT22;3155;49.940;8.450;2022-08-01T11:54:53;32.70;96.60
6244;DHT22;3155;49.940;8.450;2022-08-01T11:57:24;32.80;95.80
6244;DHT22;3155;49.940;8.450;2022-08-01T12:00:11;31.40;96.60
6244;DHT22;3155;49.940;8.450;2022-08-01T12:02:43;31.70;96.40
6244;DHT22;3155;49.940;8.450;2022-08-01T12:05:13;31.30;96.30
6244;DHT22;3155;49.940;8.450;2022-08-01T12:07:43;31.90;96.00
6244;DHT22;3155;49.940;8.450;2022-08-01T12:10:15;31.80;95.90
6244;DHT22;3155;49.940;8.450;2022-08-01T12:12:53;32.60;95.40
6244;DHT22;3155;49.940;8.450;2022-08-01T12:15:23;33.00;95.20
6244;DHT22;3155;49.940;8.450;2022-08-01T12:17:56;33.10;95.50
6244;DHT22;3155;49.940;8.450;2022-08-01T12:20:43;33.10;94.70
6244;DHT22;3155;49.940;8.450;2022-08-01T12:23:22;32.90;94.90
6244;DHT22;3155;49.940;8.450;2022-08-01T12:25:52;32.70;94.70
6244;DHT22;3155;49.940;8.450;2022-08-01T12:28:20;32.40;94.90
6244;DHT22;3155;49.940;8.450;2022-08-01T12:30:48;32.40;94.90
6244;DHT22;3155;49.940;8.450;2022-08-01T12:33:17;31.50;95.10
6244;DHT22;3155;49.940;8.450;2022-08-01T12:35:46;31.90;95.10
6244;DHT22;3155;49.940;8.450;2022-08-01T12:38:21;32.00;95.60
6244;DHT22;3155;49.940;8.450;2022-08-01T12:40:53;32.10;95.10
6244;DHT22;3155;49.940;8.450;2022-08-01T12:43:22;31.80;95.60
6244;DHT22;3155;49.940;8.450;2022-08-01T12:45:55;32.30;95.30
6244;DHT22;3155;49.940;8.450;2022-08-01T12:48:25;32.70;95.20
6244;DHT22;3155;49.940;8.450;2022-08-01T12:50:52;33.40;94.90
6244;DHT22;3155;49.940;8.450;2022-08-01T12:53:20;34.00;94.70
6244;DHT22;3155;49.940;8.450;2022-08-01T12:55:52;33.60;93.20
6244;DHT22;3155;49.940;8.450;2022-08-01T12:58:31;33.60;93.50
6244;DHT22;3155;49.940;8.450;2022-08-01T13:01:11;32.40;93.50
6244;DHT22;3155;49.940;8.450;2022-08-01T13:03:40;31.80;94.30
6244;DHT22;3155;49.940;8.450;2022-08-01T13:06:11;32.10;95.40
6244;DHT22;3155;49.940;8.450;2022-08-01T13:08:39;32.40;95.00
6244;DHT22;3155;49.940;8.450;2022-08-01T13:11:08;32.90;94.60
6244;DHT22;3155;49.940;8.450;2022-08-01T13:16:07;33.00;93.60
6244;DHT22;3155;49.940;8.450;2022-08-01T13:18:38;32.40;93.80
6244;DHT22;3155;49.940;8.450;2022-08-01T13:23:39;32.40;95.10
6244;DHT22;3155;49.940;8.450;2022-08-01T13:26:46;32.80;94.30
6244;DHT22;3155;49.940;8.450;2022-08-01T13:29:18;32.90;94.60
6244;DHT22;3155;49.940;8.450;2022-08-01T13:31:48;33.10;94.00
6244;DHT22;3155;49.940;8.450;2022-08-01T13:34:15;33.20;93.90
6244;DHT22;3155;49.940;8.450;2022-08-01T13:36:42;33.00;93.70
6244;DHT22;3155;49.940;8.450;2022-08-01T13:39:15;33.10;94.20
6244;DHT22;3155;49.940;8.450;2022-08-01T13:42:00;33.00;94.10
6244;DHT22;3155;49.940;8.450;2022-08-01T13:44:27;32.70;94.50
6244;DHT22;3155;49.940;8.450;2022-08-01T13:46:54;32.40;94.30
6244;DHT22;3155;49.940;8.450;2022-08-01T13:49:22;32.20;95.00
6244;DHT22;3155;49.940;8.450;2022-08-01T13:51:49;32.00;95.30
6244;DHT22;3155;49.940;8.450;2022-08-01T13:54:17;31.80;95.10
6244;DHT22;3155;49.940;8.450;2022-08-01T13:56:44;31.30;95.30
6244;DHT22;3155;49.940;8.450;2022-08-01T13:59:12;31.10;95.40
6244;DHT22;3155;49.940;8.450;2022-08-01T14:01:39;31.20;95.60
6244;DHT22;3155;49.940;8.450;2022-08-01T14:04:05;31.30;94.70
6244;DHT22;3155;49.940;8.450;2022-08-01T14:06:33;31.10;94.80
6244;DHT22;3155;49.940;8.450;2022-08-01T14:08:59;31.30;95.20
6244;DHT22;3155;49.940;8.450;2022-08-01T14:11:30;31.30;95.50
6244;DHT22;3155;49.940;8.450;2022-08-01T14:14:03;31.30;95.10
6244;DHT22;3155;49.940;8.450;2022-08-01T14:16:36;31.00;95.10
6244;DHT22;3155;49.940;8.450;2022-08-01T14:19:04;30.80;95.00
6244;DHT22;3155;49.940;8.450;2022-08-01T14:21:31;30.80;95.90
6244;DHT22;3155;49.940;8.450;2022-08-01T14:23:57;30.90;95.00
6244;DHT22;3155;49.940;8.450;2022-08-01T14:26:24;30.70;94.90
6244;DHT22;3155;49.940;8.450;2022-08-01T14:28:51;30.70;95.20
6244;DHT22;3155;49.940;8.450;2022-08-01T14:31:17;30.70;95.10
6244;DHT22;3155;49.940;8.450;2022-08-01T14:33:44;30.70;95.50
6244;DHT22;3155;49.940;8.450;2022-08-01T14:36:11;31.00;95.00
6244;DHT22;3155;49.940;8.450;2022-08-01T14:38:57;31.20;94.90
6244;DHT22;3155;49.940;8.450;2022-08-01T14:41:26;31.00;94.90
6244;DHT22;3155;49.940;8.450;2022-08-01T14:43:53;30.60;95.20
6244;DHT22;3155;49.940;8.450;2022-08-01T14:46:20;30.50;95.40
6244;DHT22;3155;49.940;8.450;2022-08-01T14:48:47;30.20;95.20
6244;DHT22;3155;49.940;8.450;2022-08-01T14:51:14;29.70;95.50
6244;DHT22;3155;49.940;8.450;2022-08-01T14:53:41;29.50;96.00
6244;DHT22;3155;49.940;8.450;2022-08-01T14:56:16;29.30;96.20
6244;DHT22;3155;49.940;8.450;2022-08-01T14:58:44;29.10;96.10
6244;DHT22;3155;49.940;8.450;2022-08-01T15:01:10;28.80;96.10
6244;DHT22;3155;49.940;8.450;2022-08-01T15:03:37;28.70;96.50
6244;DHT22;3155;49.940;8.450;2022-08-01T15:06:04;28.50;96.60
6244;DHT22;3155;49.940;8.450;2022-08-01T15:08:32;28.20;96.90
6244;DHT22;3155;49.940;8.450;2022-08-01T15:11:01;28.00;96.80
6244;DHT22;3155;49.940;8.450;2022-08-01T15:13:50;27.70;97.70
6244;DHT22;3155;49.940;8.450;2022-08-01T15:16:37;27.20;99.90
6244;DHT22;3155;49.940;8.450;2022-08-01T15:19:04;26.10;99.90
6244;DHT22;3155;49.940;8.450;2022-08-01T15:21:31;25.40;99.90
6244;DHT22;3155;49.940;8.450;2022-08-01T15:24:07;24.80;99.90
6244;DHT22;3155;49.940;8.450;2022-08-01T15:26:35;24.10;99.90
6244;DHT22;3155;49.940;8.450;2022-08-01T15:29:02;23.50;99.90
6244;DHT22;3155;49.940;8.450;2022-08-01T15:31:29;22.90;99.90
6244;DHT22;3155;49.940;8.450;2022-08-01T15:33:57;22.50;99.90
6244;DHT22;3155;49.940;8.450;2022-08-01T15:36:27;21.90;99.90
6244;DHT22;3155;49.940;8.450;2022-08-01T15:38:54;21.40;99.90
6244;DHT22;3155;49.940;8.450;2022-08-01T15:41:21;21.30;99.90
6244;DHT22;3155;49.940;8.450;2022-08-01T15:43:48;21.20;99.90
6244;DHT22;3155;49.940;8.450;2022-08-01T15:46:22;21.30;99.90
6244;DHT22;3155;49.940;8.450;2022-08-01T15:48:52;21.30;99.90
6244;DHT22;3155;49.940;8.450;2022-08-01T15:51:22;21.50;99.90
6244;DHT22;3155;49.940;8.450;2022-08-01T15:53:49;21.70;99.90
6244;DHT22;3155;49.940;8.450;2022-08-01T15:56:15;22.00;99.90
6244;DHT22;3155;49.940;8.450;2022-08-01T15:58:42;22.10;99.90
6244;DHT22;3155;49.940;8.450;2022-08-01T16:01:09;22.20;99.90
6244;DHT22;3155;49.940;8.450;2022-08-01T16:03:36;22.40;99.90
6244;DHT22;3155;49.940;8.450;2022-08-01T16:06:03;22.40;99.90
6244;DHT22;3155;49.940;8.450;2022-08-01T16:08:30;22.60;99.90
6244;DHT22;3155;49.940;8.450;2022-08-01T16:10:57;22.90;99.90
6244;DHT22;3155;49.940;8.450;2022-08-01T16:13:23;23.20;99.90
6244;DHT22;3155;49.940;8.450;2022-08-01T16:15:50;23.60;99.90
6244;DHT22;3155;49.940;8.450;2022-08-01T16:18:17;23.90;99.90
6244;DHT22;3155;49.940;8.450;2022-08-01T16:20:46;24.30;99.90
6244;DHT22;3155;49.940;8.450;2022-08-01T16:23:14;24.70;99.90
6244;DHT22;3155;49.940;8.450;2022-08-01T16:25:41;25.30;99.90
6244;DHT22;3155;49.940;8.450;2022-08-01T16:28:09;25.80;99.90
6244;DHT22;3155;49.940;8.450;2022-08-01T16:30:37;25.70;99.90
6244;DHT22;3155;49.940;8.450;2022-08-01T16:33:20;25.70;99.90
6244;DHT22;3155;49.940;8.450;2022-08-01T16:36:07;25.70;99.90
6244;DHT22;3155;49.940;8.450;2022-08-01T16:38:38;25.70;99.90
6244;DHT22;3155;49.940;8.450;2022-08-01T16:41:04;25.50;99.90
6244;DHT22;3155;49.940;8.450;2022-08-01T16:43:46;25.40;99.90
6244;DHT22;3155;49.940;8.450;2022-08-01T16:46:19;25.30;99.90
6244;DHT22;3155;49.940;8.450;2022-08-01T16:48:46;25.10;99.90
6244;DHT22;3155;49.940;8.450;2022-08-01T16:51:13;25.10;99.90
6244;DHT22;3155;49.940;8.450;2022-08-01T16:53:39;24.90;99.90
6244;DHT22;3155;49.940;8.450;2022-08-01T16:56:06;24.90;99.90
6244;DHT22;3155;49.940;8.450;2022-08-01T16:58:33;24.90;99.90
6244;DHT22;3155;49.940;8.450;2022-08-01T17:01:00;24.80;99.90
6244;DHT22;3155;49.940;8.450;2022-08-01T17:03:47;24.80;99.90
6244;DHT22;3155;49.940;8.450;2022-08-01T17:06:20;24.60;99.90
6244;DHT22;3155;49.940;8.450;2022-08-01T17:08:48;24.60;99.90
6244;DHT22;3155;49.940;8.450;2022-08-01T17:11:15;24.50;99.90
6244;DHT22;3155;49.940;8.450;2022-08-01T17:13:44;24.50;99.90
6244;DHT22;3155;49.940;8.450;2022-08-01T17:16:11;24.40;99.90